createdAt,value
2023-01-11T00:02:23.549Z,98.70
2023-01-11T00:05:25.389Z,98.90
2023-01-11T00:08:28.055Z,98.60
2023-01-11T00:11:29.514Z,98.70
2023-01-11T00:14:31.007Z,98.70
2023-01-11T00:17:32.550Z,98.70
2023-01-11T00:20:34.129Z,98.70
2023-01-11T00:23:36.613Z,99.10
2023-01-11T00:26:38.098Z,98.70
2023-01-11T00:29:39.657Z,98.70
2023-01-11T00:32:41.462Z,98.70
2023-01-11T00:35:42.926Z,99.00
2023-01-11T00:38:44.602Z,99.40
2023-01-11T00:42:04.887Z,98.80
2023-01-11T00:45:25.495Z,98.40
2023-01-11T00:48:27.052Z,98.60
2023-01-11T00:51:28.677Z,98.80
2023-01-11T00:54:30.138Z,98.80
2023-01-11T00:57:31.605Z,98.80
2023-01-11T01:00:33.105Z,98.70
2023-01-11T01:03:37.438Z,98.60
2023-01-11T01:06:39.029Z,98.00
2023-01-11T01:09:40.632Z,98.60
2023-01-11T01:13:00.878Z,98.40
2023-01-11T01:16:02.381Z,98.00
2023-01-11T01:19:03.868Z,98.50
2023-01-11T01:22:05.792Z,98.60
2023-01-11T01:25:09.447Z,98.50
2023-01-11T01:28:11.004Z,98.30
2023-01-11T01:31:13.060Z,98.60
2023-01-11T01:34:14.532Z,98.70
2023-01-11T01:37:16.082Z,98.60
2023-01-11T01:40:17.699Z,98.50
2023-01-11T01:43:19.211Z,98.60
2023-01-11T01:46:21.889Z,98.50
2023-01-11T01:49:23.437Z,98.60
2023-01-11T01:52:29.017Z,98.50
2023-01-11T01:55:33.891Z,98.40
2023-01-11T01:58:38.404Z,98.60
2023-01-11T02:01:49.758Z,99.10
2023-01-11T02:04:52.412Z,98.70
2023-01-11T02:07:56.120Z,98.70
2023-01-11T02:10:58.295Z,98.70
2023-01-11T02:14:02.240Z,99.00
2023-01-11T02:17:03.898Z,98.80
2023-01-11T02:20:17.604Z,98.80
2023-01-11T02:23:22.114Z,98.30
2023-01-11T02:26:39.015Z,98.20
2023-01-11T02:29:48.952Z,98.20
2023-01-11T02:32:56.200Z,98.30
2023-01-11T02:36:07.750Z,98.30
2023-01-11T02:39:16.330Z,99.10
2023-01-11T02:42:42.834Z,99.20
2023-01-11T02:45:52.648Z,98.40
2023-01-11T02:48:59.593Z,98.50
2023-01-11T02:52:06.736Z,99.10
2023-01-11T02:55:09.210Z,99.00
2023-01-11T02:58:12.048Z,99.00
2023-01-11T03:01:13.627Z,99.40
2023-01-11T03:04:25.961Z,99.00
2023-01-11T03:07:33.348Z,98.30
2023-01-11T03:10:40.878Z,99.00
2023-01-11T03:13:49.738Z,98.30
2023-01-11T03:17:00.133Z,99.10
2023-01-11T03:20:07.098Z,98.40
2023-01-11T03:23:11.858Z,99.10
2023-01-11T03:26:22.407Z,99.00
2023-01-11T03:29:35.807Z,98.30
2023-01-11T03:32:45.506Z,99.10
2023-01-11T03:36:00.455Z,98.40
2023-01-11T03:39:05.528Z,99.10
2023-01-11T03:42:08.392Z,99.10
2023-01-11T03:45:10.276Z,99.10
2023-01-11T03:48:17.902Z,98.90
2023-01-11T03:51:22.156Z,99.20
2023-01-11T03:54:24.441Z,99.20
2023-01-11T03:57:29.407Z,99.10
2023-01-11T04:00:31.112Z,99.20
2023-01-11T04:03:32.584Z,99.20
2023-01-11T04:06:35.780Z,99.30
2023-01-11T04:09:38.295Z,99.30
2023-01-11T04:12:39.817Z,99.30
2023-01-11T04:15:41.411Z,99.30
2023-01-11T04:18:42.889Z,99.20
2023-01-11T04:21:44.353Z,99.20
2023-01-11T04:24:45.824Z,99.40
2023-01-11T04:27:47.293Z,99.30
2023-01-11T04:30:48.954Z,99.40
2023-01-11T04:33:50.404Z,99.40
2023-01-11T04:36:51.884Z,99.40
2023-01-11T04:39:53.433Z,99.40
2023-01-11T04:42:54.967Z,99.50
2023-01-11T04:45:59.029Z,99.40
2023-01-11T04:49:00.617Z,99.50
2023-01-11T04:52:02.260Z,99.60
2023-01-11T04:55:03.906Z,99.20
2023-01-11T04:58:05.417Z,99.40
2023-01-11T05:01:17.903Z,99.40
2023-01-11T05:04:19.601Z,98.70
2023-01-11T05:07:21.107Z,99.30
2023-01-11T05:10:22.596Z,99.40
2023-01-11T05:13:41.400Z,99.50
2023-01-11T05:16:43.266Z,99.50
2023-01-11T05:19:44.807Z,99.50
2023-01-11T05:22:46.401Z,99.60
2023-01-11T05:25:47.877Z,99.50
2023-01-11T05:28:49.791Z,99.50
2023-01-11T05:31:51.336Z,99.40
2023-01-11T05:34:52.836Z,99.50
2023-01-11T05:37:54.295Z,99.50
2023-01-11T05:40:56.733Z,99.50
2023-01-11T05:44:16.655Z,99.50
2023-01-11T05:47:18.154Z,99.00
2023-01-11T05:50:19.651Z,99.50
2023-01-11T05:53:24.104Z,99.60
2023-01-11T05:56:25.872Z,98.80
2023-01-11T05:59:27.407Z,99.40
2023-01-11T06:02:28.939Z,99.60
2023-01-11T06:05:30.486Z,99.60
2023-01-11T06:08:31.958Z,99.50
2023-01-11T06:11:33.460Z,99.60
2023-01-11T06:14:37.842Z,99.40
2023-01-11T06:17:41.164Z,99.50
2023-01-11T06:20:42.636Z,99.70
2023-01-11T06:23:45.568Z,99.50
2023-01-11T06:26:47.033Z,99.60
2023-01-11T06:29:48.572Z,99.50
2023-01-11T06:32:50.035Z,99.60
2023-01-11T06:35:52.364Z,99.60
2023-01-11T06:38:53.853Z,99.70
2023-01-11T06:41:55.379Z,99.70
2023-01-11T06:44:56.836Z,99.70
2023-01-11T06:47:58.605Z,99.80
2023-01-11T06:51:32.383Z,99.80
2023-01-11T06:54:33.902Z,99.90
2023-01-11T06:57:35.374Z,99.80
2023-01-11T07:00:37.082Z,99.90
2023-01-11T07:03:40.077Z,99.90
2023-01-11T07:06:41.575Z,99.90
2023-01-11T07:09:43.048Z,99.90
2023-01-11T07:12:44.573Z,99.80
2023-01-11T07:15:48.363Z,99.90
2023-01-11T07:18:49.877Z,99.90
2023-01-11T07:22:08.671Z,99.90
2023-01-11T07:25:10.194Z,99.90
2023-01-11T07:28:11.667Z,99.90
2023-01-11T07:31:13.234Z,99.80
2023-01-11T07:34:14.780Z,99.90
2023-01-11T07:37:28.135Z,99.90
2023-01-11T07:40:30.637Z,99.90
2023-01-11T07:43:33.404Z,99.90
2023-01-11T07:46:34.971Z,99.90
2023-01-11T07:49:36.519Z,99.90
2023-01-11T07:52:38.032Z,99.90
2023-01-11T07:55:40.217Z,99.90
2023-01-11T07:58:41.759Z,99.90
2023-01-11T08:01:43.290Z,99.90
2023-01-11T08:04:44.763Z,99.90
2023-01-11T08:07:46.591Z,99.90
2023-01-11T08:11:08.091Z,99.90
2023-01-11T08:14:29.131Z,99.90
2023-01-11T08:17:30.714Z,99.90
2023-01-11T08:20:32.398Z,99.90
2023-01-11T08:23:34.265Z,99.90
2023-01-11T08:26:35.826Z,99.90
2023-01-11T08:29:38.049Z,99.90
2023-01-11T08:32:39.752Z,99.90
2023-01-11T08:35:41.472Z,99.90
2023-01-11T08:38:43.567Z,99.90
2023-01-11T08:41:45.052Z,99.90
2023-01-11T08:44:46.567Z,99.90
2023-01-11T08:47:51.660Z,99.90
2023-01-11T08:50:53.167Z,99.90
2023-01-11T08:53:54.629Z,99.90
2023-01-11T08:56:56.144Z,99.90
2023-01-11T08:59:57.626Z,99.90
2023-01-11T09:03:02.596Z,99.90
2023-01-11T09:06:04.236Z,99.80
2023-01-11T09:09:08.014Z,99.90
2023-01-11T09:12:12.711Z,99.90
2023-01-11T09:15:14.182Z,99.90
2023-01-11T09:18:15.687Z,99.90
2023-01-11T09:21:17.182Z,99.90
2023-01-11T09:24:18.805Z,99.90
2023-01-11T09:27:20.320Z,99.90
2023-01-11T09:30:23.929Z,99.90
2023-01-11T09:33:27.555Z,99.90
2023-01-11T09:36:30.808Z,99.90
2023-01-11T09:39:33.880Z,99.90
2023-01-11T09:42:39.388Z,99.90
2023-01-11T09:45:46.610Z,99.90
2023-01-11T09:48:51.649Z,99.90
2023-01-11T09:52:01.167Z,99.90
2023-01-11T09:55:02.890Z,99.90
2023-01-11T09:58:08.668Z,99.90
2023-01-11T10:01:27.325Z,99.90
2023-01-11T10:04:33.039Z,99.40
2023-01-11T10:07:51.638Z,99.90
2023-01-11T10:18:32.083Z,99.80
2023-01-11T10:19:17.179Z,99.10
2023-01-11T10:22:11.866Z,99.20
2023-01-11T10:25:21.740Z,99.90
2023-01-11T10:28:31.147Z,99.80
2023-01-11T10:31:51.254Z,99.90
2023-01-11T10:35:11.985Z,99.40
2023-01-11T10:38:30.812Z,99.80
2023-01-11T10:41:52.191Z,99.80
2023-01-11T10:44:57.933Z,99.00
2023-01-11T10:48:02.578Z,99.70
2023-01-11T10:51:13.309Z,99.70
2023-01-11T10:54:17.874Z,99.00
2023-01-11T10:57:23.270Z,99.90
2023-01-11T11:00:32.517Z,99.70
2023-01-11T11:03:41.220Z,99.60
2023-01-11T11:06:48.559Z,99.60
2023-01-11T11:10:09.019Z,98.90
2023-01-11T11:13:10.461Z,99.10
2023-01-11T11:16:12.019Z,99.60
2023-01-11T11:19:16.236Z,99.60
2023-01-11T11:22:19.972Z,99.70
2023-01-11T11:25:27.266Z,99.50
2023-01-11T11:28:30.471Z,99.40
2023-01-11T11:31:32.314Z,99.30
2023-01-11T11:34:33.835Z,99.30
2023-01-11T11:37:36.653Z,99.10
2023-01-11T11:40:38.722Z,99.20
2023-01-11T11:43:41.283Z,99.30
2023-01-11T11:46:55.616Z,99.40
2023-01-11T11:50:20.701Z,99.30
2023-01-11T11:53:37.347Z,99.30
2023-01-11T11:56:41.776Z,98.70
2023-01-11T11:59:47.836Z,98.90
2023-01-11T12:02:50.625Z,98.80
2023-01-11T12:06:00.986Z,99.70
2023-01-11T12:09:02.957Z,99.20
2023-01-11T12:12:04.761Z,99.80
2023-01-11T12:15:15.231Z,99.80
2023-01-11T12:18:24.742Z,99.20
2023-01-11T12:21:28.039Z,99.00
2023-01-11T12:24:29.558Z,99.70
2023-01-11T12:27:39.435Z,99.60
2023-01-11T12:30:47.618Z,98.90
2023-01-11T12:33:53.413Z,98.80
2023-01-11T12:37:13.413Z,99.50
2023-01-11T12:40:21.337Z,98.60
2023-01-11T12:43:22.829Z,99.20
2023-01-11T12:46:30.586Z,98.90
2023-01-11T12:49:45.253Z,98.10
2023-01-11T12:53:05.413Z,98.20
2023-01-11T12:56:36.423Z,98.00
2023-01-11T12:59:53.122Z,97.90
2023-01-11T13:03:13.510Z,97.90
2023-01-11T13:06:25.124Z,98.00
2023-01-11T13:09:29.469Z,97.90
2023-01-11T13:12:34.833Z,98.00
2023-01-11T13:15:44.986Z,98.00
2023-01-11T13:19:00.555Z,98.10
2023-01-11T13:22:05.185Z,98.80
2023-01-11T13:25:15.714Z,98.70
2023-01-11T13:28:29.821Z,98.00
2023-01-11T13:31:35.264Z,98.10
2023-01-11T13:34:39.929Z,97.90
2023-01-11T13:37:44.163Z,98.80
2023-01-11T13:40:58.431Z,98.90
2023-01-11T13:44:06.142Z,98.10
2023-01-11T13:47:14.225Z,97.90
2023-01-11T13:50:23.265Z,98.70
2023-01-11T13:53:38.235Z,98.70
2023-01-11T13:56:41.295Z,98.80
2023-01-11T13:59:45.836Z,98.70
2023-01-11T14:03:03.513Z,98.80
2023-01-11T14:06:07.868Z,98.20
2023-01-11T14:09:18.582Z,98.10
2023-01-11T14:12:34.235Z,98.00
2023-01-11T14:15:39.317Z,98.20
2023-01-11T14:19:13.463Z,98.90
2023-01-11T14:22:25.216Z,98.10
2023-01-11T14:25:37.225Z,98.20
2023-01-11T14:28:57.299Z,98.30
2023-01-11T14:32:04.880Z,98.20
2023-01-11T14:35:07.611Z,98.90
2023-01-11T14:38:27.220Z,98.90
2023-01-11T14:41:51.591Z,98.10
2023-01-11T14:45:16.711Z,98.20
2023-01-11T14:48:29.609Z,98.30
2023-01-11T14:51:34.376Z,98.30
2023-01-11T14:54:44.885Z,98.10
2023-01-11T14:57:55.692Z,98.20
2023-01-11T15:00:57.130Z,98.10
2023-01-11T15:03:58.694Z,99.00
2023-01-11T15:07:00.376Z,98.60
2023-01-11T15:10:04.474Z,98.60
2023-01-11T15:13:09.847Z,98.60
2023-01-11T15:16:48.219Z,98.70
2023-01-11T15:19:51.241Z,98.10
2023-01-11T15:22:57.693Z,98.70
2023-01-11T15:26:00.695Z,98.20
2023-01-11T15:29:02.708Z,98.80
2023-01-11T15:32:07.369Z,99.00
2023-01-11T15:35:31.603Z,98.20
2023-01-11T15:38:40.081Z,98.40
2023-01-11T15:42:06.650Z,98.40
2023-01-11T15:45:24.877Z,98.40
2023-01-11T15:48:40.521Z,98.30
2023-01-11T15:51:56.029Z,98.40
2023-01-11T15:55:16.440Z,98.50
2023-01-11T15:58:37.436Z,98.50
2023-01-11T16:01:48.144Z,98.10
2023-01-11T16:04:51.643Z,98.90
2023-01-11T16:08:01.716Z,99.00
2023-01-11T16:11:22.133Z,98.40
2023-01-11T16:14:34.501Z,98.50
2023-01-11T16:17:39.599Z,98.50
2023-01-11T16:20:43.825Z,99.30
2023-01-11T16:23:45.953Z,99.30
2023-01-11T16:26:52.895Z,99.30
2023-01-11T16:29:55.205Z,98.70
2023-01-11T16:33:16.135Z,99.40
2023-01-11T16:36:23.814Z,98.70
2023-01-11T16:39:27.270Z,98.70
2023-01-11T16:42:31.267Z,99.30
2023-01-11T16:45:46.401Z,99.30
2023-01-11T16:48:47.925Z,98.50
2023-01-11T16:51:49.550Z,98.90
2023-01-11T16:54:52.360Z,98.70
2023-01-11T16:57:56.392Z,98.40
2023-01-11T17:01:02.552Z,98.30
2023-01-11T17:04:07.276Z,97.50
2023-01-11T17:07:13.079Z,98.20
2023-01-11T17:10:14.509Z,98.20
2023-01-11T17:13:35.996Z,98.10
2023-01-11T17:16:39.182Z,98.20
2023-01-11T17:19:47.880Z,98.10
2023-01-11T17:22:53.754Z,97.50
2023-01-11T17:25:56.603Z,97.70
2023-01-11T17:28:59.354Z,98.20
2023-01-11T17:32:02.898Z,98.20
2023-01-11T17:35:08.897Z,98.10
2023-01-11T17:38:14.561Z,97.80
2023-01-11T17:41:35.497Z,98.40
2023-01-11T17:44:55.526Z,98.20
2023-01-11T17:48:08.056Z,97.60
2023-01-11T17:51:09.728Z,98.20
2023-01-11T17:54:21.440Z,98.40
2023-01-11T17:57:23.041Z,97.80
2023-01-11T18:00:26.343Z,98.70
2023-01-11T18:03:28.138Z,98.20
2023-01-11T18:06:32.809Z,97.90
2023-01-11T18:09:39.263Z,97.40
2023-01-11T18:12:43.440Z,98.10
2023-01-11T18:15:46.673Z,98.40
2023-01-11T18:18:49.658Z,98.20
2023-01-11T18:21:52.054Z,98.10
2023-01-11T18:24:53.976Z,98.00
2023-01-11T18:28:14.307Z,98.20
2023-01-11T18:31:16.000Z,97.60
2023-01-11T18:34:17.509Z,98.40
2023-01-11T18:37:18.987Z,98.40
2023-01-11T18:40:21.625Z,98.40
2023-01-11T18:43:28.115Z,98.30
2023-01-11T18:46:29.610Z,97.60
2023-01-11T18:49:31.151Z,98.30
2023-01-11T18:52:32.663Z,98.30
2023-01-11T18:55:34.352Z,98.40
2023-01-11T18:58:35.856Z,98.20
2023-01-11T19:01:52.756Z,98.40
2023-01-11T19:04:59.565Z,98.30
2023-01-11T19:08:01.058Z,98.30
2023-01-11T19:11:03.922Z,98.40
2023-01-11T19:14:05.380Z,98.40
2023-01-11T19:17:08.538Z,98.30
2023-01-11T19:20:10.959Z,98.40
2023-01-11T19:23:12.462Z,98.10
2023-01-11T19:26:13.968Z,98.40
2023-01-11T19:29:17.726Z,98.30
2023-01-11T19:32:23.604Z,98.40
2023-01-11T19:35:25.135Z,98.40
2023-01-11T19:38:26.612Z,98.30
2023-01-11T19:41:29.470Z,98.30
2023-01-11T19:44:32.242Z,98.20
2023-01-11T19:47:36.475Z,98.20
2023-01-11T19:50:40.876Z,98.70
2023-01-11T19:53:42.461Z,98.90
2023-01-11T19:56:46.689Z,98.80
2023-01-11T19:59:48.742Z,98.30
2023-01-11T20:02:50.358Z,98.20
2023-01-11T20:05:51.860Z,98.30
2023-01-11T20:08:54.628Z,98.30
2023-01-11T20:11:58.048Z,98.30
2023-01-11T20:15:01.204Z,98.00
2023-01-11T20:18:02.859Z,98.20
2023-01-11T20:21:04.719Z,98.10
2023-01-11T20:24:06.452Z,98.00
2023-01-11T20:27:08.121Z,97.80
2023-01-11T20:30:10.226Z,97.50
2023-01-11T20:33:11.700Z,97.70
2023-01-11T20:36:14.566Z,97.80
2023-01-11T20:39:17.283Z,97.40
2023-01-11T20:42:18.808Z,97.70
2023-01-11T20:45:20.277Z,97.50
2023-01-11T20:48:21.889Z,97.60
2023-01-11T20:51:23.405Z,97.80
2023-01-11T20:54:24.881Z,97.60
2023-01-11T20:57:29.465Z,97.60
2023-01-11T21:00:33.563Z,97.80
2023-01-11T21:03:35.421Z,97.70
2023-01-11T21:06:43.916Z,97.60
2023-01-11T21:09:45.411Z,97.50
2023-01-11T21:15:48.026Z,97.40
2023-01-11T21:18:53.444Z,97.50
2023-01-11T21:21:54.914Z,98.10
2023-01-11T21:24:57.576Z,97.80
2023-01-11T21:27:59.992Z,98.00
2023-01-11T21:31:02.162Z,98.00
2023-01-11T21:34:06.157Z,98.00
2023-01-11T21:37:07.606Z,98.00
2023-01-11T21:40:09.415Z,98.00
2023-01-11T21:43:14.535Z,97.80
2023-01-11T21:46:19.477Z,98.00
2023-01-11T21:49:22.393Z,97.50
2023-01-11T21:52:26.705Z,97.90
2023-01-11T21:55:28.251Z,97.10
2023-01-11T21:58:32.197Z,97.70
2023-01-11T22:01:33.678Z,97.80
2023-01-11T22:04:35.900Z,97.60
2023-01-11T22:07:42.166Z,97.70
2023-01-11T22:10:54.868Z,97.70
2023-01-11T22:13:56.348Z,97.60
2023-01-11T22:16:59.858Z,97.70
2023-01-11T22:20:01.575Z,97.50
2023-01-11T22:23:04.285Z,97.50
2023-01-11T22:26:07.086Z,97.60
2023-01-11T22:29:11.753Z,97.60
2023-01-11T22:32:13.300Z,97.50
2023-01-11T22:35:14.874Z,97.60
2023-01-11T22:38:16.345Z,97.50
2023-01-11T22:41:17.846Z,97.60
2023-01-11T22:44:19.367Z,97.60
2023-01-11T22:47:20.911Z,97.60
2023-01-11T22:50:22.640Z,97.60
2023-01-11T22:53:25.130Z,97.90
2023-01-11T22:56:29.051Z,97.90
2023-01-11T22:59:34.134Z,97.80
2023-01-11T23:02:35.705Z,98.20
2023-01-11T23:05:37.245Z,98.10
2023-01-11T23:08:45.494Z,98.00
2023-01-11T23:12:05.620Z,97.70
2023-01-11T23:15:07.423Z,97.60
2023-01-11T23:18:10.527Z,98.10
2023-01-11T23:21:12.044Z,98.20
2023-01-11T23:24:18.791Z,98.30
2023-01-11T23:27:20.409Z,98.20
2023-01-11T23:30:21.983Z,98.20
2023-01-11T23:33:23.469Z,98.20
2023-01-11T23:36:29.302Z,98.60
2023-01-11T23:39:32.643Z,97.70
2023-01-11T23:42:35.381Z,98.30
2023-01-11T23:45:38.227Z,98.20
2023-01-11T23:48:39.729Z,98.40
2023-01-11T23:51:42.139Z,98.50
2023-01-11T23:54:45.286Z,98.20
2023-01-11T23:58:06.757Z,98.50
